sensor_id;sensor_type;location;lat;lon;timestamp;P1;durP1;ratioP1;P2;durP2;ratioP2
43680;SDS011;29281;50.356;30.894;2022-07-29T00:00:42;5.22;;;3.15;;
43680;SDS011;29281;50.356;30.894;2022-07-29T00:01:49;5.75;;;3.48;;
43680;SDS011;29281;50.356;30.894;2022-07-29T00:02:54;9.53;;;3.66;;
43680;SDS011;29281;50.356;30.894;2022-07-29T00:03:57;6.78;;;3.31;;
43680;SDS011;29281;50.356;30.894;2022-07-29T00:05:01;7.80;;;3.87;;
43680;SDS011;29281;50.356;30.894;2022-07-29T00:06:11;9.02;;;3.72;;
43680;SDS011;29281;50.356;30.894;2022-07-29T00:07:15;7.17;;;3.61;;
43680;SDS011;29281;50.356;30.894;2022-07-29T00:08:20;8.46;;;4.04;;
43680;SDS011;29281;50.356;30.894;2022-07-29T00:09:25;8.30;;;3.33;;
43680;SDS011;29281;50.356;30.894;2022-07-29T00:10:33;8.17;;;3.69;;
43680;SDS011;29281;50.356;30.894;2022-07-29T00:11:37;6.56;;;3.80;;
43680;SDS011;29281;50.356;30.894;2022-07-29T00:12:40;6.62;;;3.69;;
43680;SDS011;29281;50.356;30.894;2022-07-29T00:13:44;7.44;;;3.78;;
43680;SDS011;29281;50.356;30.894;2022-07-29T00:14:49;8.12;;;3.80;;
43680;SDS011;29281;50.356;30.894;2022-07-29T00:15:56;7.51;;;3.63;;
43680;SDS011;29281;50.356;30.894;2022-07-29T00:17:01;8.07;;;3.30;;
43680;SDS011;29281;50.356;30.894;2022-07-29T00:18:04;6.98;;;3.74;;
43680;SDS011;29281;50.356;30.894;2022-07-29T00:19:11;6.12;;;3.64;;
43680;SDS011;29281;50.356;30.894;2022-07-29T00:20:18;6.07;;;4.04;;
43680;SDS011;29281;50.356;30.894;2022-07-29T00:21:22;7.16;;;3.62;;
43680;SDS011;29281;50.356;30.894;2022-07-29T00:22:26;8.53;;;3.52;;
43680;SDS011;29281;50.356;30.894;2022-07-29T00:23:32;6.39;;;3.49;;
43680;SDS011;29281;50.356;30.894;2022-07-29T00:24:45;5.58;;;3.47;;
43680;SDS011;29281;50.356;30.894;2022-07-29T00:25:46;6.63;;;3.68;;
43680;SDS011;29281;50.356;30.894;2022-07-29T00:26:50;4.81;;;3.08;;
43680;SDS011;29281;50.356;30.894;2022-07-29T00:53:33;4.86;;;3.31;;
43680;SDS011;29281;50.356;30.894;2022-07-29T00:54:39;7.43;;;4.01;;
43680;SDS011;29281;50.356;30.894;2022-07-29T00:55:45;6.18;;;4.09;;
43680;SDS011;29281;50.356;30.894;2022-07-29T00:56:49;8.14;;;3.93;;
43680;SDS011;29281;50.356;30.894;2022-07-29T00:57:53;6.38;;;4.02;;
43680;SDS011;29281;50.356;30.894;2022-07-29T00:58:57;8.64;;;4.34;;
43680;SDS011;29281;50.356;30.894;2022-07-29T01:00:06;6.52;;;3.59;;
43680;SDS011;29281;50.356;30.894;2022-07-29T01:01:15;7.19;;;3.96;;
43680;SDS011;29281;50.356;30.894;2022-07-29T01:02:18;6.27;;;3.74;;
43680;SDS011;29281;50.356;30.894;2022-07-29T01:03:21;7.64;;;3.67;;
43680;SDS011;29281;50.356;30.894;2022-07-29T01:04:25;5.05;;;3.69;;
43680;SDS011;29281;50.356;30.894;2022-07-29T01:05:29;7.09;;;3.54;;
43680;SDS011;29281;50.356;30.894;2022-07-29T01:06:35;6.72;;;4.04;;
43680;SDS011;29281;50.356;30.894;2022-07-29T01:07:42;5.96;;;3.74;;
43680;SDS011;29281;50.356;30.894;2022-07-29T01:08:48;5.87;;;3.79;;
43680;SDS011;29281;50.356;30.894;2022-07-29T01:09:56;7.45;;;4.10;;
43680;SDS011;29281;50.356;30.894;2022-07-29T01:11:04;6.67;;;3.61;;
43680;SDS011;29281;50.356;30.894;2022-07-29T01:12:08;4.67;;;3.42;;
43680;SDS011;29281;50.356;30.894;2022-07-29T01:13:14;6.68;;;4.27;;
43680;SDS011;29281;50.356;30.894;2022-07-29T01:14:25;8.15;;;3.59;;
43680;SDS011;29281;50.356;30.894;2022-07-29T01:15:39;6.59;;;3.39;;
43680;SDS011;29281;50.356;30.894;2022-07-29T01:16:54;5.19;;;3.47;;
43680;SDS011;29281;50.356;30.894;2022-07-29T01:18:02;5.92;;;3.77;;
43680;SDS011;29281;50.356;30.894;2022-07-29T01:19:12;6.37;;;3.63;;
43680;SDS011;29281;50.356;30.894;2022-07-29T01:20:55;7.76;;;3.38;;
43680;SDS011;29281;50.356;30.894;2022-07-29T01:29:54;4.86;;;3.38;;
43680;SDS011;29281;50.356;30.894;2022-07-29T01:31:00;5.97;;;3.53;;
43680;SDS011;29281;50.356;30.894;2022-07-29T01:32:18;5.08;;;3.57;;
43680;SDS011;29281;50.356;30.894;2022-07-29T01:33:29;5.42;;;3.86;;
43680;SDS011;29281;50.356;30.894;2022-07-29T01:36:32;6.03;;;3.85;;
43680;SDS011;29281;50.356;30.894;2022-07-29T01:38:19;8.44;;;3.77;;
43680;SDS011;29281;50.356;30.894;2022-07-29T01:38:52;7.69;;;3.88;;
43680;SDS011;29281;50.356;30.894;2022-07-29T01:40:02;6.88;;;3.83;;
43680;SDS011;29281;50.356;30.894;2022-07-29T01:41:09;8.71;;;3.69;;
43680;SDS011;29281;50.356;30.894;2022-07-29T01:43:35;6.24;;;3.78;;
43680;SDS011;29281;50.356;30.894;2022-07-29T01:46:25;6.95;;;3.74;;
43680;SDS011;29281;50.356;30.894;2022-07-29T01:47:37;5.78;;;3.48;;
43680;SDS011;29281;50.356;30.894;2022-07-29T01:48:45;6.66;;;4.08;;
43680;SDS011;29281;50.356;30.894;2022-07-29T01:49:52;5.21;;;3.61;;
43680;SDS011;29281;50.356;30.894;2022-07-29T01:51:07;7.07;;;3.85;;
43680;SDS011;29281;50.356;30.894;2022-07-29T01:52:18;7.25;;;4.12;;
43680;SDS011;29281;50.356;30.894;2022-07-29T01:53:36;6.38;;;4.17;;
43680;SDS011;29281;50.356;30.894;2022-07-29T01:54:49;6.76;;;4.03;;
43680;SDS011;29281;50.356;30.894;2022-07-29T01:56:00;5.38;;;3.66;;
43680;SDS011;29281;50.356;30.894;2022-07-29T01:57:06;6.66;;;3.72;;
43680;SDS011;29281;50.356;30.894;2022-07-29T01:58:13;6.39;;;3.83;;
43680;SDS011;29281;50.356;30.894;2022-07-29T01:59:22;5.94;;;3.72;;
43680;SDS011;29281;50.356;30.894;2022-07-29T02:00:29;6.32;;;3.97;;
43680;SDS011;29281;50.356;30.894;2022-07-29T02:01:37;6.72;;;3.88;;
43680;SDS011;29281;50.356;30.894;2022-07-29T02:02:45;7.64;;;4.14;;
43680;SDS011;29281;50.356;30.894;2022-07-29T02:03:51;6.28;;;3.66;;
43680;SDS011;29281;50.356;30.894;2022-07-29T02:04:57;7.22;;;3.78;;
43680;SDS011;29281;50.356;30.894;2022-07-29T02:06:05;7.39;;;3.87;;
43680;SDS011;29281;50.356;30.894;2022-07-29T02:07:12;8.63;;;3.72;;
43680;SDS011;29281;50.356;30.894;2022-07-29T02:08:19;5.56;;;3.78;;
43680;SDS011;29281;50.356;30.894;2022-07-29T02:09:24;5.67;;;3.85;;
43680;SDS011;29281;50.356;30.894;2022-07-29T02:10:33;6.09;;;4.09;;
43680;SDS011;29281;50.356;30.894;2022-07-29T02:11:39;6.25;;;3.88;;
43680;SDS011;29281;50.356;30.894;2022-07-29T02:12:45;6.13;;;3.66;;
43680;SDS011;29281;50.356;30.894;2022-07-29T02:13:52;7.84;;;4.03;;
43680;SDS011;29281;50.356;30.894;2022-07-29T02:14:59;6.84;;;4.11;;
43680;SDS011;29281;50.356;30.894;2022-07-29T02:16:06;6.22;;;4.16;;
43680;SDS011;29281;50.356;30.894;2022-07-29T02:17:13;8.06;;;4.06;;
43680;SDS011;29281;50.356;30.894;2022-07-29T02:18:18;6.33;;;4.36;;
43680;SDS011;29281;50.356;30.894;2022-07-29T02:19:24;5.68;;;4.10;;
43680;SDS011;29281;50.356;30.894;2022-07-29T02:20:30;6.82;;;4.13;;
43680;SDS011;29281;50.356;30.894;2022-07-29T02:21:37;7.53;;;4.02;;
43680;SDS011;29281;50.356;30.894;2022-07-29T02:22:42;7.81;;;4.18;;
43680;SDS011;29281;50.356;30.894;2022-07-29T02:23:48;6.42;;;4.28;;
43680;SDS011;29281;50.356;30.894;2022-07-29T02:24:56;6.51;;;3.99;;
43680;SDS011;29281;50.356;30.894;2022-07-29T02:26:03;5.94;;;4.13;;
43680;SDS011;29281;50.356;30.894;2022-07-29T02:27:06;6.76;;;4.22;;
43680;SDS011;29281;50.356;30.894;2022-07-29T02:28:16;6.56;;;3.84;;
43680;SDS011;29281;50.356;30.894;2022-07-29T02:29:22;6.56;;;4.12;;
43680;SDS011;29281;50.356;30.894;2022-07-29T02:30:29;6.51;;;3.98;;
43680;SDS011;29281;50.356;30.894;2022-07-29T02:31:35;8.43;;;4.44;;
43680;SDS011;29281;50.356;30.894;2022-07-29T02:32:41;5.18;;;3.98;;
43680;SDS011;29281;50.356;30.894;2022-07-29T02:33:45;5.66;;;4.18;;
43680;SDS011;29281;50.356;30.894;2022-07-29T02:34:50;6.24;;;3.83;;
43680;SDS011;29281;50.356;30.894;2022-07-29T02:35:54;6.58;;;3.84;;
43680;SDS011;29281;50.356;30.894;2022-07-29T02:36:59;6.44;;;3.87;;
43680;SDS011;29281;50.356;30.894;2022-07-29T02:38:06;6.75;;;4.42;;
43680;SDS011;29281;50.356;30.894;2022-07-29T02:39:31;6.19;;;4.28;;
43680;SDS011;29281;50.356;30.894;2022-07-29T02:40:36;9.65;;;4.29;;
43680;SDS011;29281;50.356;30.894;2022-07-29T02:41:47;6.51;;;4.31;;
43680;SDS011;29281;50.356;30.894;2022-07-29T02:42:59;7.61;;;4.74;;
43680;SDS011;29281;50.356;30.894;2022-07-29T02:44:06;10.01;;;4.19;;
43680;SDS011;29281;50.356;30.894;2022-07-29T02:45:23;5.88;;;4.14;;
43680;SDS011;29281;50.356;30.894;2022-07-29T02:46:29;6.87;;;3.92;;
43680;SDS011;29281;50.356;30.894;2022-07-29T02:47:39;6.13;;;4.10;;
43680;SDS011;29281;50.356;30.894;2022-07-29T02:48:45;7.09;;;4.05;;
43680;SDS011;29281;50.356;30.894;2022-07-29T02:49:53;5.19;;;3.92;;
43680;SDS011;29281;50.356;30.894;2022-07-29T02:51:01;9.33;;;4.13;;
43680;SDS011;29281;50.356;30.894;2022-07-29T02:52:17;6.43;;;4.03;;
43680;SDS011;29281;50.356;30.894;2022-07-29T02:53:35;7.08;;;4.44;;
43680;SDS011;29281;50.356;30.894;2022-07-29T02:54:44;5.46;;;4.06;;
43680;SDS011;29281;50.356;30.894;2022-07-29T02:55:56;9.61;;;4.98;;
43680;SDS011;29281;50.356;30.894;2022-07-29T02:57:28;6.11;;;3.68;;
43680;SDS011;29281;50.356;30.894;2022-07-29T02:58:40;9.32;;;4.05;;
43680;SDS011;29281;50.356;30.894;2022-07-29T02:59:46;6.54;;;4.26;;
43680;SDS011;29281;50.356;30.894;2022-07-29T03:00:53;6.17;;;4.16;;
43680;SDS011;29281;50.356;30.894;2022-07-29T03:02:00;6.06;;;4.21;;
43680;SDS011;29281;50.356;30.894;2022-07-29T03:03:15;6.44;;;3.82;;
43680;SDS011;29281;50.356;30.894;2022-07-29T03:04:22;7.92;;;4.27;;
43680;SDS011;29281;50.356;30.894;2022-07-29T03:05:32;8.53;;;4.04;;
43680;SDS011;29281;50.356;30.894;2022-07-29T03:06:40;6.95;;;4.27;;
43680;SDS011;29281;50.356;30.894;2022-07-29T03:07:51;5.73;;;4.05;;
43680;SDS011;29281;50.356;30.894;2022-07-29T03:08:59;7.13;;;3.96;;
43680;SDS011;29281;50.356;30.894;2022-07-29T03:10:03;5.87;;;3.81;;
43680;SDS011;29281;50.356;30.894;2022-07-29T03:11:14;6.04;;;3.76;;
43680;SDS011;29281;50.356;30.894;2022-07-29T03:12:20;5.74;;;3.50;;
43680;SDS011;29281;50.356;30.894;2022-07-29T03:13:25;7.83;;;4.06;;
43680;SDS011;29281;50.356;30.894;2022-07-29T03:14:31;7.61;;;3.72;;
43680;SDS011;29281;50.356;30.894;2022-07-29T03:15:37;8.19;;;3.49;;
43680;SDS011;29281;50.356;30.894;2022-07-29T03:16:43;4.71;;;3.63;;
43680;SDS011;29281;50.356;30.894;2022-07-29T03:17:48;5.24;;;3.74;;
43680;SDS011;29281;50.356;30.894;2022-07-29T03:18:54;4.93;;;3.52;;
43680;SDS011;29281;50.356;30.894;2022-07-29T03:19:58;6.56;;;3.51;;
43680;SDS011;29281;50.356;30.894;2022-07-29T03:21:03;7.11;;;3.65;;
43680;SDS011;29281;50.356;30.894;2022-07-29T03:22:14;5.81;;;3.43;;
43680;SDS011;29281;50.356;30.894;2022-07-29T03:23:20;6.60;;;3.90;;
43680;SDS011;29281;50.356;30.894;2022-07-29T03:24:27;5.68;;;3.39;;
43680;SDS011;29281;50.356;30.894;2022-07-29T03:25:34;6.69;;;3.48;;
43680;SDS011;29281;50.356;30.894;2022-07-29T03:26:40;6.69;;;3.49;;
43680;SDS011;29281;50.356;30.894;2022-07-29T03:27:44;5.56;;;3.42;;
43680;SDS011;29281;50.356;30.894;2022-07-29T03:28:47;5.46;;;3.24;;
43680;SDS011;29281;50.356;30.894;2022-07-29T03:29:52;5.11;;;3.43;;
43680;SDS011;29281;50.356;30.894;2022-07-29T03:30:58;5.41;;;3.52;;
43680;SDS011;29281;50.356;30.894;2022-07-29T03:32:04;9.06;;;3.54;;
43680;SDS011;29281;50.356;30.894;2022-07-29T03:33:10;5.25;;;3.42;;
43680;SDS011;29281;50.356;30.894;2022-07-29T03:34:15;5.54;;;3.13;;
43680;SDS011;29281;50.356;30.894;2022-07-29T03:35:19;6.48;;;3.28;;
43680;SDS011;29281;50.356;30.894;2022-07-29T03:36:25;6.71;;;3.57;;
43680;SDS011;29281;50.356;30.894;2022-07-29T03:37:31;5.36;;;3.57;;
43680;SDS011;29281;50.356;30.894;2022-07-29T03:38:40;5.49;;;3.25;;
43680;SDS011;29281;50.356;30.894;2022-07-29T03:39:47;7.21;;;3.60;;
43680;SDS011;29281;50.356;30.894;2022-07-29T03:41:00;8.32;;;3.71;;
43680;SDS011;29281;50.356;30.894;2022-07-29T03:42:03;4.51;;;3.25;;
43680;SDS011;29281;50.356;30.894;2022-07-29T03:43:10;5.62;;;3.36;;
43680;SDS011;29281;50.356;30.894;2022-07-29T03:44:19;5.49;;;3.53;;
43680;SDS011;29281;50.356;30.894;2022-07-29T03:45:25;7.31;;;3.66;;
43680;SDS011;29281;50.356;30.894;2022-07-29T03:46:34;6.64;;;3.46;;
43680;SDS011;29281;50.356;30.894;2022-07-29T03:47:50;6.58;;;3.46;;
43680;SDS011;29281;50.356;30.894;2022-07-29T03:48:58;4.56;;;3.10;;
43680;SDS011;29281;50.356;30.894;2022-07-29T03:50:08;5.04;;;3.41;;
43680;SDS011;29281;50.356;30.894;2022-07-29T03:51:16;5.66;;;3.37;;
43680;SDS011;29281;50.356;30.894;2022-07-29T03:52:22;4.87;;;3.11;;
43680;SDS011;29281;50.356;30.894;2022-07-29T03:53:26;4.06;;;2.84;;
43680;SDS011;29281;50.356;30.894;2022-07-29T03:54:33;5.66;;;3.17;;
43680;SDS011;29281;50.356;30.894;2022-07-29T03:55:36;4.90;;;2.79;;
43680;SDS011;29281;50.356;30.894;2022-07-29T03:56:46;5.35;;;2.98;;
43680;SDS011;29281;50.356;30.894;2022-07-29T03:57:52;5.90;;;3.02;;
43680;SDS011;29281;50.356;30.894;2022-07-29T03:58:58;6.08;;;3.23;;
43680;SDS011;29281;50.356;30.894;2022-07-29T04:00:05;5.02;;;2.98;;
43680;SDS011;29281;50.356;30.894;2022-07-29T04:01:10;5.32;;;3.19;;
43680;SDS011;29281;50.356;30.894;2022-07-29T04:02:15;5.46;;;3.36;;
43680;SDS011;29281;50.356;30.894;2022-07-29T04:03:21;6.94;;;3.08;;
43680;SDS011;29281;50.356;30.894;2022-07-29T04:04:25;4.74;;;3.02;;
43680;SDS011;29281;50.356;30.894;2022-07-29T04:06:45;4.02;;;2.76;;
43680;SDS011;29281;50.356;30.894;2022-07-29T04:07:50;6.07;;;3.36;;
43680;SDS011;29281;50.356;30.894;2022-07-29T04:08:54;6.48;;;3.16;;
43680;SDS011;29281;50.356;30.894;2022-07-29T04:10:01;5.00;;;2.72;;
43680;SDS011;29281;50.356;30.894;2022-07-29T04:11:05;7.06;;;2.82;;
43680;SDS011;29281;50.356;30.894;2022-07-29T04:12:09;6.01;;;2.87;;
43680;SDS011;29281;50.356;30.894;2022-07-29T04:13:13;8.11;;;2.89;;
43680;SDS011;29281;50.356;30.894;2022-07-29T04:14:18;5.41;;;2.76;;
43680;SDS011;29281;50.356;30.894;2022-07-29T04:15:25;4.64;;;2.60;;
43680;SDS011;29281;50.356;30.894;2022-07-29T04:16:33;4.76;;;2.61;;
43680;SDS011;29281;50.356;30.894;2022-07-29T04:17:37;4.37;;;3.09;;
43680;SDS011;29281;50.356;30.894;2022-07-29T04:18:42;3.80;;;2.34;;
43680;SDS011;29281;50.356;30.894;2022-07-29T04:19:45;4.47;;;2.87;;
43680;SDS011;29281;50.356;30.894;2022-07-29T04:20:53;5.81;;;2.86;;
43680;SDS011;29281;50.356;30.894;2022-07-29T04:21:56;4.19;;;2.65;;
43680;SDS011;29281;50.356;30.894;2022-07-29T04:23:01;4.32;;;2.91;;
43680;SDS011;29281;50.356;30.894;2022-07-29T04:24:07;4.97;;;3.12;;
43680;SDS011;29281;50.356;30.894;2022-07-29T04:25:11;5.63;;;3.19;;
43680;SDS011;29281;50.356;30.894;2022-07-29T04:26:16;6.28;;;2.76;;
43680;SDS011;29281;50.356;30.894;2022-07-29T04:27:24;4.07;;;2.47;;
43680;SDS011;29281;50.356;30.894;2022-07-29T04:28:33;4.03;;;2.67;;
43680;SDS011;29281;50.356;30.894;2022-07-29T04:29:35;4.16;;;2.45;;
43680;SDS011;29281;50.356;30.894;2022-07-29T04:30:41;4.57;;;2.04;;
43680;SDS011;29281;50.356;30.894;2022-07-29T04:31:45;3.45;;;2.41;;
43680;SDS011;29281;50.356;30.894;2022-07-29T04:32:48;4.00;;;2.62;;
43680;SDS011;29281;50.356;30.894;2022-07-29T04:33:52;3.09;;;2.16;;
43680;SDS011;29281;50.356;30.894;2022-07-29T04:34:56;3.63;;;1.86;;
43680;SDS011;29281;50.356;30.894;2022-07-29T04:36:01;3.94;;;2.11;;
43680;SDS011;29281;50.356;30.894;2022-07-29T04:37:07;5.75;;;2.10;;
43680;SDS011;29281;50.356;30.894;2022-07-29T04:38:10;4.03;;;1.69;;
43680;SDS011;29281;50.356;30.894;2022-07-29T04:39:15;3.30;;;1.81;;
43680;SDS011;29281;50.356;30.894;2022-07-29T04:40:23;4.24;;;2.03;;
43680;SDS011;29281;50.356;30.894;2022-07-29T04:41:27;3.42;;;2.12;;
43680;SDS011;29281;50.356;30.894;2022-07-29T04:42:34;2.61;;;1.84;;
43680;SDS011;29281;50.356;30.894;2022-07-29T04:43:39;3.16;;;1.97;;
43680;SDS011;29281;50.356;30.894;2022-07-29T04:44:43;4.90;;;2.04;;
43680;SDS011;29281;50.356;30.894;2022-07-29T04:45:47;4.91;;;2.05;;
43680;SDS011;29281;50.356;30.894;2022-07-29T04:46:53;3.81;;;1.93;;
43680;SDS011;29281;50.356;30.894;2022-07-29T04:49:12;3.08;;;1.76;;
43680;SDS011;29281;50.356;30.894;2022-07-29T04:50:16;3.14;;;2.16;;
43680;SDS011;29281;50.356;30.894;2022-07-29T04:51:21;4.37;;;1.97;;
43680;SDS011;29281;50.356;30.894;2022-07-29T04:52:27;3.14;;;1.92;;
43680;SDS011;29281;50.356;30.894;2022-07-29T04:53:45;3.16;;;1.69;;
43680;SDS011;29281;50.356;30.894;2022-07-29T04:54:49;3.89;;;1.63;;
43680;SDS011;29281;50.356;30.894;2022-07-29T04:55:52;4.19;;;1.74;;
43680;SDS011;29281;50.356;30.894;2022-07-29T04:56:56;2.84;;;1.53;;
43680;SDS011;29281;50.356;30.894;2022-07-29T04:58:00;4.66;;;1.43;;
43680;SDS011;29281;50.356;30.894;2022-07-29T04:59:03;3.97;;;1.56;;
43680;SDS011;29281;50.356;30.894;2022-07-29T05:00:10;2.98;;;1.44;;
43680;SDS011;29281;50.356;30.894;2022-07-29T05:01:23;2.67;;;1.70;;
43680;SDS011;29281;50.356;30.894;2022-07-29T05:02:27;3.36;;;1.69;;
43680;SDS011;29281;50.356;30.894;2022-07-29T05:03:31;4.34;;;1.58;;
43680;SDS011;29281;50.356;30.894;2022-07-29T05:04:34;3.68;;;1.66;;
43680;SDS011;29281;50.356;30.894;2022-07-29T05:05:38;4.52;;;1.72;;
43680;SDS011;29281;50.356;30.894;2022-07-29T05:06:42;4.98;;;1.65;;
43680;SDS011;29281;50.356;30.894;2022-07-29T05:07:46;2.78;;;1.50;;
43680;SDS011;29281;50.356;30.894;2022-07-29T05:08:49;4.26;;;1.68;;
43680;SDS011;29281;50.356;30.894;2022-07-29T05:09:53;3.56;;;1.84;;
43680;SDS011;29281;50.356;30.894;2022-07-29T05:10:58;2.93;;;1.87;;
43680;SDS011;29281;50.356;30.894;2022-07-29T05:12:04;4.61;;;1.98;;
43680;SDS011;29281;50.356;30.894;2022-07-29T05:13:08;5.08;;;1.75;;
43680;SDS011;29281;50.356;30.894;2022-07-29T05:14:12;5.35;;;1.76;;
43680;SDS011;29281;50.356;30.894;2022-07-29T05:15:24;2.91;;;1.89;;
43680;SDS011;29281;50.356;30.894;2022-07-29T05:16:29;5.72;;;1.83;;
43680;SDS011;29281;50.356;30.894;2022-07-29T05:17:32;5.96;;;1.96;;
43680;SDS011;29281;50.356;30.894;2022-07-29T05:18:38;6.48;;;2.05;;
43680;SDS011;29281;50.356;30.894;2022-07-29T05:19:42;4.27;;;1.99;;
43680;SDS011;29281;50.356;30.894;2022-07-29T05:20:46;4.87;;;1.89;;
43680;SDS011;29281;50.356;30.894;2022-07-29T05:21:51;4.37;;;2.02;;
43680;SDS011;29281;50.356;30.894;2022-07-29T05:22:56;4.15;;;1.87;;
43680;SDS011;29281;50.356;30.894;2022-07-29T05:24:01;3.73;;;1.96;;
43680;SDS011;29281;50.356;30.894;2022-07-29T05:25:09;3.29;;;1.68;;
43680;SDS011;29281;50.356;30.894;2022-07-29T05:26:15;6.08;;;2.06;;
43680;SDS011;29281;50.356;30.894;2022-07-29T05:27:18;3.89;;;1.85;;
43680;SDS011;29281;50.356;30.894;2022-07-29T05:28:22;5.22;;;1.87;;
43680;SDS011;29281;50.356;30.894;2022-07-29T05:29:33;3.74;;;1.68;;
43680;SDS011;29281;50.356;30.894;2022-07-29T05:30:39;4.30;;;1.56;;
43680;SDS011;29281;50.356;30.894;2022-07-29T05:31:45;3.16;;;1.71;;
43680;SDS011;29281;50.356;30.894;2022-07-29T05:32:49;3.99;;;1.61;;
43680;SDS011;29281;50.356;30.894;2022-07-29T05:33:55;3.44;;;1.67;;
43680;SDS011;29281;50.356;30.894;2022-07-29T05:35:01;3.81;;;1.72;;
43680;SDS011;29281;50.356;30.894;2022-07-29T05:36:04;3.33;;;1.59;;
43680;SDS011;29281;50.356;30.894;2022-07-29T05:37:10;3.93;;;1.49;;
43680;SDS011;29281;50.356;30.894;2022-07-29T05:38:13;3.39;;;1.77;;
43680;SDS011;29281;50.356;30.894;2022-07-29T05:39:18;4.81;;;1.75;;
43680;SDS011;29281;50.356;30.894;2022-07-29T05:40:24;3.60;;;1.68;;
43680;SDS011;29281;50.356;30.894;2022-07-29T05:41:28;4.74;;;1.58;;
43680;SDS011;29281;50.356;30.894;2022-07-29T05:42:40;4.39;;;1.61;;
43680;SDS011;29281;50.356;30.894;2022-07-29T05:43:44;5.24;;;1.61;;
43680;SDS011;29281;50.356;30.894;2022-07-29T05:44:47;3.48;;;1.61;;
43680;SDS011;29281;50.356;30.894;2022-07-29T05:45:52;2.82;;;1.42;;
43680;SDS011;29281;50.356;30.894;2022-07-29T05:46:58;3.08;;;1.56;;
43680;SDS011;29281;50.356;30.894;2022-07-29T05:48:04;2.87;;;1.70;;
43680;SDS011;29281;50.356;30.894;2022-07-29T05:49:12;4.20;;;1.59;;
43680;SDS011;29281;50.356;30.894;2022-07-29T05:50:19;6.68;;;1.72;;
43680;SDS011;29281;50.356;30.894;2022-07-29T05:51:23;3.30;;;1.62;;
43680;SDS011;29281;50.356;30.894;2022-07-29T05:52:28;3.79;;;1.76;;
43680;SDS011;29281;50.356;30.894;2022-07-29T05:53:32;3.11;;;1.52;;
43680;SDS011;29281;50.356;30.894;2022-07-29T05:54:38;4.22;;;1.62;;
43680;SDS011;29281;50.356;30.894;2022-07-29T05:55:47;3.24;;;1.51;;
43680;SDS011;29281;50.356;30.894;2022-07-29T05:56:55;3.04;;;1.50;;
43680;SDS011;29281;50.356;30.894;2022-07-29T05:58:01;2.27;;;1.42;;
43680;SDS011;29281;50.356;30.894;2022-07-29T05:59:04;4.19;;;1.56;;
43680;SDS011;29281;50.356;30.894;2022-07-29T06:00:10;4.49;;;1.56;;
43680;SDS011;29281;50.356;30.894;2022-07-29T06:01:16;2.97;;;1.43;;
43680;SDS011;29281;50.356;30.894;2022-07-29T06:02:21;2.65;;;1.55;;
43680;SDS011;29281;50.356;30.894;2022-07-29T06:03:23;4.29;;;1.16;;
43680;SDS011;29281;50.356;30.894;2022-07-29T06:04:27;6.22;;;1.66;;
43680;SDS011;29281;50.356;30.894;2022-07-29T06:05:31;3.28;;;1.69;;
43680;SDS011;29281;50.356;30.894;2022-07-29T06:06:37;2.26;;;1.16;;
43680;SDS011;29281;50.356;30.894;2022-07-29T06:07:42;2.76;;;1.30;;
43680;SDS011;29281;50.356;30.894;2022-07-29T06:08:48;4.89;;;1.51;;
43680;SDS011;29281;50.356;30.894;2022-07-29T06:09:51;3.36;;;1.69;;
43680;SDS011;29281;50.356;30.894;2022-07-29T06:10:55;3.54;;;1.31;;
43680;SDS011;29281;50.356;30.894;2022-07-29T06:11:59;3.44;;;1.55;;
43680;SDS011;29281;50.356;30.894;2022-07-29T06:13:02;5.04;;;1.43;;
43680;SDS011;29281;50.356;30.894;2022-07-29T06:14:06;4.19;;;1.71;;
43680;SDS011;29281;50.356;30.894;2022-07-29T06:15:12;4.25;;;1.34;;
43680;SDS011;29281;50.356;30.894;2022-07-29T06:16:17;4.46;;;1.41;;
43680;SDS011;29281;50.356;30.894;2022-07-29T06:17:23;3.09;;;1.36;;
43680;SDS011;29281;50.356;30.894;2022-07-29T06:18:26;3.75;;;1.42;;
43680;SDS011;29281;50.356;30.894;2022-07-29T06:19:29;5.24;;;1.22;;
43680;SDS011;29281;50.356;30.894;2022-07-29T06:20:34;4.22;;;1.61;;
43680;SDS011;29281;50.356;30.894;2022-07-29T06:21:42;2.36;;;1.27;;
43680;SDS011;29281;50.356;30.894;2022-07-29T06:22:49;2.70;;;1.33;;
43680;SDS011;29281;50.356;30.894;2022-07-29T06:23:53;4.53;;;1.30;;
43680;SDS011;29281;50.356;30.894;2022-07-29T06:24:56;2.46;;;1.32;;
43680;SDS011;29281;50.356;30.894;2022-07-29T06:26:06;4.22;;;1.28;;
43680;SDS011;29281;50.356;30.894;2022-07-29T06:28:24;2.06;;;1.22;;
43680;SDS011;29281;50.356;30.894;2022-07-29T06:29:31;3.20;;;1.35;;
43680;SDS011;29281;50.356;30.894;2022-07-29T06:30:35;6.94;;;1.38;;
43680;SDS011;29281;50.356;30.894;2022-07-29T06:31:38;3.67;;;1.21;;
43680;SDS011;29281;50.356;30.894;2022-07-29T06:32:43;3.18;;;1.16;;
43680;SDS011;29281;50.356;30.894;2022-07-29T06:33:46;4.55;;;1.27;;
43680;SDS011;29281;50.356;30.894;2022-07-29T06:34:50;4.32;;;1.38;;
43680;SDS011;29281;50.356;30.894;2022-07-29T06:36:03;3.48;;;1.34;;
43680;SDS011;29281;50.356;30.894;2022-07-29T06:37:07;2.81;;;1.19;;
43680;SDS011;29281;50.356;30.894;2022-07-29T06:38:13;2.77;;;1.11;;
43680;SDS011;29281;50.356;30.894;2022-07-29T06:39:19;3.13;;;1.24;;
43680;SDS011;29281;50.356;30.894;2022-07-29T06:40:24;3.94;;;1.50;;
43680;SDS011;29281;50.356;30.894;2022-07-29T06:41:49;5.28;;;1.64;;
43680;SDS011;29281;50.356;30.894;2022-07-29T06:42:55;3.39;;;1.38;;
43680;SDS011;29281;50.356;30.894;2022-07-29T06:43:59;3.69;;;1.49;;
43680;SDS011;29281;50.356;30.894;2022-07-29T06:45:01;3.33;;;1.41;;
43680;SDS011;29281;50.356;30.894;2022-07-29T06:46:08;2.80;;;1.41;;
43680;SDS011;29281;50.356;30.894;2022-07-29T06:47:14;3.58;;;1.44;;
43680;SDS011;29281;50.356;30.894;2022-07-29T06:48:18;3.29;;;1.31;;
43680;SDS011;29281;50.356;30.894;2022-07-29T06:49:22;3.61;;;1.39;;
43680;SDS011;29281;50.356;30.894;2022-07-29T06:50:28;2.91;;;1.23;;
43680;SDS011;29281;50.356;30.894;2022-07-29T06:51:31;3.83;;;1.51;;
43680;SDS011;29281;50.356;30.894;2022-07-29T06:52:34;3.76;;;1.16;;
43680;SDS011;29281;50.356;30.894;2022-07-29T06:53:38;3.12;;;1.22;;
43680;SDS011;29281;50.356;30.894;2022-07-29T06:54:45;4.12;;;1.46;;
43680;SDS011;29281;50.356;30.894;2022-07-29T06:55:51;2.59;;;1.38;;
43680;SDS011;29281;50.356;30.894;2022-07-29T06:57:09;3.89;;;1.32;;
43680;SDS011;29281;50.356;30.894;2022-07-29T06:58:15;2.29;;;1.40;;
43680;SDS011;29281;50.356;30.894;2022-07-29T06:59:23;2.88;;;1.41;;
43680;SDS011;29281;50.356;30.894;2022-07-29T07:00:28;6.03;;;1.73;;
43680;SDS011;29281;50.356;30.894;2022-07-29T07:01:35;4.18;;;1.71;;
43680;SDS011;29281;50.356;30.894;2022-07-29T07:02:42;4.39;;;1.56;;
43680;SDS011;29281;50.356;30.894;2022-07-29T07:03:49;2.33;;;1.30;;
43680;SDS011;29281;50.356;30.894;2022-07-29T07:04:51;4.90;;;1.55;;
43680;SDS011;29281;50.356;30.894;2022-07-29T07:05:57;4.33;;;1.44;;
43680;SDS011;29281;50.356;30.894;2022-07-29T07:07:01;3.34;;;1.38;;
43680;SDS011;29281;50.356;30.894;2022-07-29T07:08:08;2.62;;;1.56;;
43680;SDS011;29281;50.356;30.894;2022-07-29T07:09:14;2.43;;;1.52;;
43680;SDS011;29281;50.356;30.894;2022-07-29T07:10:19;4.67;;;1.74;;
43680;SDS011;29281;50.356;30.894;2022-07-29T07:11:30;2.06;;;1.31;;
43680;SDS011;29281;50.356;30.894;2022-07-29T07:12:34;3.50;;;1.70;;
43680;SDS011;29281;50.356;30.894;2022-07-29T07:13:39;3.15;;;1.69;;
43680;SDS011;29281;50.356;30.894;2022-07-29T07:14:44;4.31;;;1.62;;
43680;SDS011;29281;50.356;30.894;2022-07-29T07:15:47;3.11;;;1.46;;
43680;SDS011;29281;50.356;30.894;2022-07-29T07:16:54;3.57;;;1.69;;